Time;durP1;ratioP1;P1;durP2;ratioP2;P2;SDS_P1;SDS_P2;PMS_P1;PMS_P2;Temp;Humidity;BMP_temperature;BMP_pressure;BME280_temperature;BME280_humidity;BME280_pressure;Samples;Min_cycle;Max_cycle;Signal;HPM_P1;HPM_P2
2023/09/13 00:02:22;;;;;;;7.03;4.10;;;;;;;20.13;69.63;92801.47;2071575;69;20132;-80
2023/09/13 00:04:48;;;;;;;5.95;3.67;;;;;;;20.19;68.23;92798.06;2071700;69;20187;-78
2023/09/13 00:07:13;;;;;;;6.43;3.75;;;;;;;20.18;68.43;92796.59;2071534;69;20163;-79
2023/09/13 00:09:41;;;;;;;10.52;4.80;;;;;;;19.84;70.32;92799.97;2071670;69;20587;-79
2023/09/13 00:12:12;;;;;;;7.63;4.70;;;;;;;20.11;69.17;92795.69;2071732;69;20249;-78
2023/09/13 00:14:38;;;;;;;7.70;4.40;;;;;;;20.12;69.61;92799.31;2071641;69;20153;-78
2023/09/13 00:17:04;;;;;;;10.40;4.90;;;;;;;20.17;68.11;92798.75;2068377;69;20152;-78
2023/09/13 00:19:30;;;;;;;7.97;4.72;;;;;;;20.13;68.34;92790.06;2071617;69;20579;-79
2023/09/13 00:21:56;;;;;;;7.10;4.20;;;;;;;20.04;69.16;92779.81;2071716;69;20148;-79
2023/09/13 00:24:22;;;;;;;8.95;4.90;;;;;;;20.07;68.88;92778.47;2071575;69;20136;-79
2023/09/13 00:26:47;;;;;;;6.75;4.13;;;;;;;20.03;68.43;92766.94;2071687;69;20229;-79
2023/09/13 00:29:15;;;;;;;7.35;4.00;;;;;;;20.09;68.30;92766.34;2071665;69;20153;-80
2023/09/13 00:31:41;;;;;;;5.07;3.97;;;;;;;20.02;69.09;92763.34;2068318;69;20199;-80
2023/09/13 00:34:08;;;;;;;6.97;3.78;;;;;;;20.06;68.50;92766.28;2068421;69;20171;-79
2023/09/13 00:36:34;;;;;;;10.30;3.80;;;;;;;20.08;68.55;92767.75;2068494;69;20616;-79
2023/09/13 00:38:59;;;;;;;8.73;4.35;;;;;;;20.06;68.34;92769.13;2071877;69;20140;-79
2023/09/13 00:41:25;;;;;;;6.45;3.50;;;;;;;20.11;68.00;92772.84;2072034;69;20145;-79
2023/09/13 00:43:50;;;;;;;8.55;3.85;;;;;;;20.17;66.16;92773.00;2068888;69;20164;-79
2023/09/13 00:46:17;;;;;;;7.13;3.90;;;;;;;20.20;67.51;92780.22;2071984;69;20974;-79
2023/09/13 00:48:43;;;;;;;4.55;3.55;;;;;;;20.16;67.93;92777.28;2068319;69;20205;-79
2023/09/13 00:51:11;;;;;;;6.72;4.00;;;;;;;20.15;68.27;92777.94;2068268;69;20136;-79
2023/09/13 00:53:37;;;;;;;4.00;3.60;;;;;;;20.14;67.96;92774.34;2068457;69;20240;-78
2023/09/13 00:56:04;;;;;;;7.63;4.10;;;;;;;20.10;67.99;92764.94;2068472;69;20175;-79
2023/09/13 00:58:31;;;;;;;8.45;3.90;;;;;;;20.08;68.44;92768.50;2071503;69;20190;-80
2023/09/13 01:00:56;;;;;;;8.38;4.13;;;;;;;20.09;67.99;92772.06;2068215;69;20136;-80
2023/09/13 01:03:23;;;;;;;7.80;4.40;;;;;;;20.10;67.81;92774.25;2071498;69;20191;-79
2023/09/13 01:05:54;;;;;;;6.28;4.43;;;;;;;19.94;68.43;92777.41;2068371;69;20202;-80
2023/09/13 01:08:20;;;;;;;8.05;4.28;;;;;;;19.87;68.65;92780.75;2071699;69;20227;-80
2023/09/13 01:10:47;;;;;;;7.75;4.45;;;;;;;19.97;68.69;92781.03;2071587;69;20144;-80
2023/09/13 01:13:16;;;;;;;7.72;4.32;;;;;;;19.98;69.30;92774.66;2071435;69;20480;-78
2023/09/13 01:16:17;;;;;;;11.07;4.20;;;;;;;20.01;68.75;92764.72;2071149;69;20136;-78
2023/09/13 01:19:01;;;;;;;5.00;4.30;;;;;;;20.09;67.33;92755.66;2070836;69;20293;-78
2023/09/13 01:22:08;;;;;;;7.20;4.43;;;;;;;19.76;69.11;92763.34;2071671;69;20283;-78
2023/09/13 01:24:59;;;;;;;6.85;3.75;;;;;;;20.03;68.93;92749.78;2054446;69;20255;-79
2023/09/13 01:27:46;;;;;;;7.32;4.32;;;;;;;20.07;67.54;92741.31;2057381;69;20256;-79
2023/09/13 01:30:12;;;;;;;8.45;3.83;;;;;;;19.89;67.14;92744.41;2057355;69;20142;-80
2023/09/13 01:32:38;;;;;;;5.03;4.00;;;;;;;19.89;67.80;92749.41;2054357;69;20676;-79
2023/09/13 01:35:04;;;;;;;5.53;3.88;;;;;;;20.03;68.17;92736.22;2057348;69;20157;-80
2023/09/13 01:37:31;;;;;;;6.28;3.70;;;;;;;20.06;66.77;92739.84;2057239;69;20541;-79
2023/09/13 01:39:57;;;;;;;5.72;3.80;;;;;;;20.14;66.68;92731.47;2054353;69;20585;-79
2023/09/13 01:42:23;;;;;;;5.35;3.72;;;;;;;20.22;66.91;92739.56;2054178;69;20196;-79
2023/09/13 01:44:50;;;;;;;4.53;3.55;;;;;;;20.16;67.55;92740.13;2057216;69;20705;-79
2023/09/13 01:47:18;;;;;;;6.72;3.70;;;;;;;19.97;68.26;92726.75;2054398;69;20228;-79
2023/09/13 01:49:46;;;;;;;4.78;3.58;;;;;;;19.71;68.17;92715.38;2054631;69;20639;-79
2023/09/13 01:52:11;;;;;;;5.22;3.80;;;;;;;19.76;67.95;92699.78;2057247;69;20236;-79
2023/09/13 01:54:37;;;;;;;5.35;3.90;;;;;;;19.99;67.29;92713.25;2057570;69;20150;-79
2023/09/13 01:57:03;;;;;;;6.00;3.60;;;;;;;19.96;67.99;92717.44;2068192;69;20606;-80
2023/09/13 01:59:30;;;;;;;7.28;4.05;;;;;;;19.29;70.97;92707.75;2068226;69;20195;-80
2023/09/13 02:01:56;;;;;;;9.80;4.25;;;;;;;19.49;70.47;92706.88;2068217;69;20140;-80
2023/09/13 02:04:22;;;;;;;7.57;3.75;;;;;;;19.64;70.53;92716.59;2068093;69;20136;-81
2023/09/13 02:06:48;;;;;;;6.18;3.67;;;;;;;19.59;71.18;92727.13;2065134;69;20167;-79
2023/09/13 02:09:14;;;;;;;7.20;4.05;;;;;;;19.64;69.89;92728.72;2068103;69;20168;-79
2023/09/13 02:11:39;;;;;;;6.38;4.18;;;;;;;19.53;70.77;92738.41;2071481;69;20213;-80
2023/09/13 02:14:05;;;;;;;7.85;4.15;;;;;;;19.29;71.83;92735.59;2065264;69;20275;-79
2023/09/13 02:16:31;;;;;;;10.65;4.35;;;;;;;19.43;71.37;92735.97;2071250;69;20168;-78
2023/09/13 02:18:57;;;;;;;7.70;3.88;;;;;;;19.46;71.22;92740.34;2068020;69;20180;-78
2023/09/13 02:21:23;;;;;;;9.73;4.18;;;;;;;19.42;71.51;92740.22;2068210;69;20146;-78
2023/09/13 02:23:49;;;;;;;5.05;3.67;;;;;;;19.38;71.20;92740.13;2068196;69;20236;-79
2023/09/13 02:26:24;;;;;;;5.28;3.92;;;;;;;19.35;71.75;92746.44;2068212;69;20152;-79
2023/09/13 02:28:51;;;;;;;5.72;3.60;;;;;;;19.31;71.94;92747.03;2066652;69;20165;-79
2023/09/13 02:31:25;;;;;;;6.57;3.72;;;;;;;19.37;71.62;92741.50;2067864;69;20153;-79
2023/09/13 02:33:52;;;;;;;5.47;3.60;;;;;;;19.32;71.97;92734.22;2064510;69;20676;-78
2023/09/13 02:36:17;;;;;;;5.93;3.83;;;;;;;19.35;71.67;92732.88;2067796;69;20207;-79
2023/09/13 02:38:43;;;;;;;6.47;3.72;;;;;;;19.35;71.51;92726.47;2064427;69;20607;-79
2023/09/13 02:41:08;;;;;;;6.78;3.30;;;;;;;19.41;70.35;92718.78;2064463;69;20152;-80
2023/09/13 02:43:34;;;;;;;9.15;3.83;;;;;;;18.88;73.09;92714.41;2064433;69;20544;-79
2023/09/13 02:46:00;;;;;;;5.35;4.00;;;;;;;18.91;72.43;92713.06;2064481;69;20210;-79
2023/09/13 02:48:25;;;;;;;7.60;3.60;;;;;;;19.10;72.02;92725.72;2064214;69;20135;-78
2023/09/13 02:50:51;;;;;;;7.97;3.60;;;;;;;19.05;72.83;92722.03;2064526;69;20531;-78
2023/09/13 02:53:17;;;;;;;5.75;3.20;;;;;;;19.09;72.23;92726.41;2067836;69;20179;-79
2023/09/13 02:55:43;;;;;;;4.68;3.30;;;;;;;19.16;71.10;92736.63;2067821;69;20144;-79
2023/09/13 02:58:08;;;;;;;4.72;3.05;;;;;;;19.21;71.49;92747.47;2064416;69;20591;-79
2023/09/13 03:00:35;;;;;;;7.07;3.22;;;;;;;19.22;71.55;92753.91;2064400;69;20172;-79
2023/09/13 03:03:01;;;;;;;3.90;2.92;;;;;;;19.05;71.70;92744.13;2064230;69;20267;-79
2023/09/13 03:05:27;;;;;;;7.18;3.60;;;;;;;19.19;69.54;92758.81;2064375;69;20176;-78
2023/09/13 03:07:56;;;;;;;6.55;4.25;;;;;;;19.25;69.73;92770.44;2067404;69;20166;-80
2023/09/13 03:10:22;;;;;;;5.70;3.80;;;;;;;19.22;70.90;92771.03;2064304;69;20257;-79
2023/09/13 03:12:48;;;;;;;7.40;3.78;;;;;;;19.11;71.36;92783.53;2064120;69;20683;-79
2023/09/13 03:15:14;;;;;;;6.38;4.18;;;;;;;19.11;72.11;92772.13;2067729;69;20144;-80
2023/09/13 03:17:39;;;;;;;5.30;3.42;;;;;;;18.81;73.07;92769.78;2067637;69;20125;-80
2023/09/13 03:20:09;;;;;;;6.03;3.65;;;;;;;18.74;72.86;92756.75;2064290;69;20283;-79
2023/09/13 03:22:35;;;;;;;8.43;3.10;;;;;;;18.95;72.02;92750.25;2064295;69;20209;-79
2023/09/13 03:25:01;;;;;;;5.75;3.47;;;;;;;19.19;70.56;92755.22;2064268;69;20214;-78
2023/09/13 03:27:26;;;;;;;5.85;3.53;;;;;;;19.22;71.08;92742.50;2064318;69;20176;-79
2023/09/13 03:29:54;;;;;;;3.95;2.80;;;;;;;19.26;70.64;92742.63;2064313;69;20155;-79
2023/09/13 03:32:20;;;;;;;5.30;3.17;;;;;;;19.35;69.93;92747.16;2061451;69;20157;-78
2023/09/13 03:34:46;;;;;;;7.03;3.20;;;;;;;19.31;70.33;92752.75;2067662;69;20218;-79
2023/09/13 03:37:12;;;;;;;5.28;3.22;;;;;;;19.29;70.26;92755.56;2064275;69;20256;-79
2023/09/13 03:39:37;;;;;;;4.43;2.83;;;;;;;19.30;70.01;92760.59;2064376;69;20188;-80
2023/09/13 03:42:03;;;;;;;5.50;3.25;;;;;;;19.35;69.40;92755.72;2064233;69;20147;-80
2023/09/13 03:44:29;;;;;;;5.90;3.30;;;;;;;19.26;68.45;92751.19;2064261;69;20661;-80
2023/09/13 03:46:55;;;;;;;5.10;3.20;;;;;;;19.29;68.50;92753.44;2064374;69;20277;-80
2023/09/13 03:49:21;;;;;;;5.22;3.63;;;;;;;19.34;68.50;92757.13;2064179;69;20141;-81
2023/09/13 03:51:47;;;;;;;7.18;3.17;;;;;;;19.35;67.85;92766.41;2067660;69;20253;-79
2023/09/13 03:54:13;;;;;;;4.25;2.97;;;;;;;19.47;67.57;92778.16;2061518;69;20168;-79
2023/09/13 03:56:39;;;;;;;5.82;3.70;;;;;;;18.89;70.88;92766.47;2064463;69;20574;-79
2023/09/13 03:59:05;;;;;;;5.85;3.42;;;;;;;18.33;72.61;92763.22;2067915;69;20184;-79
2023/09/13 04:01:31;;;;;;;4.28;3.35;;;;;;;18.66;70.48;92759.31;2061956;69;20204;-79
2023/09/13 04:03:57;;;;;;;8.93;2.92;;;;;;;19.03;68.19;92761.91;2067566;69;20176;-79
2023/09/13 04:06:23;;;;;;;6.85;3.03;;;;;;;19.21;67.39;92763.88;2064237;69;20664;-78
2023/09/13 04:08:48;;;;;;;5.00;3.53;;;;;;;19.08;68.24;92779.16;2067293;69;20251;-79
2023/09/13 04:11:14;;;;;;;4.78;3.03;;;;;;;19.18;69.94;92794.47;2062515;69;20137;-79
2023/09/13 04:13:39;;;;;;;5.35;3.78;;;;;;;19.12;70.25;92800.00;2067840;69;20137;-79
2023/09/13 04:16:07;;;;;;;7.20;4.10;;;;;;;19.24;70.50;92836.72;2065152;69;20225;-80
2023/09/13 04:18:33;;;;;;;6.63;3.92;;;;;;;19.30;70.44;92860.47;2064747;69;20226;-79
2023/09/13 04:20:59;;;;;;;4.45;3.22;;;;;;;19.34;70.49;92873.44;2068144;69;20176;-79
2023/09/13 04:23:25;;;;;;;6.45;3.40;;;;;;;19.38;70.17;92882.09;2064876;69;20156;-80
2023/09/13 04:25:51;;;;;;;7.50;3.75;;;;;;;19.40;70.81;92887.88;2064926;69;20162;-79
2023/09/13 04:28:17;;;;;;;8.60;3.75;;;;;;;19.41;70.89;92892.19;2061995;69;20149;-79
2023/09/13 04:30:43;;;;;;;8.25;3.38;;;;;;;19.04;72.46;92883.19;2068124;69;20171;-79
2023/09/13 04:33:09;;;;;;;7.65;3.63;;;;;;;19.10;71.12;92893.34;2064737;69;20592;-79
2023/09/13 04:35:34;;;;;;;7.13;3.67;;;;;;;19.07;72.00;92891.84;2064737;69;20489;-79
2023/09/13 04:38:00;;;;;;;6.07;3.45;;;;;;;18.97;73.58;92898.66;2064712;69;20149;-79
2023/09/13 04:40:26;;;;;;;8.40;3.70;;;;;;;18.84;76.24;92896.06;2064901;69;20163;-80
2023/09/13 04:43:15;;;;;;;14.05;4.30;;;;;;;19.01;75.76;92895.94;2064585;69;20564;-80
2023/09/13 04:45:42;;;;;;;7.78;3.75;;;;;;;18.96;75.77;92896.47;2064549;69;20148;-80
2023/09/13 04:48:07;;;;;;;7.45;3.75;;;;;;;18.99;75.39;92878.03;2064565;69;20654;-80
2023/09/13 04:50:33;;;;;;;5.35;3.72;;;;;;;19.03;74.08;92876.03;2064748;69;20567;-80
2023/09/13 04:52:58;;;;;;;5.70;3.67;;;;;;;18.85;75.60;92883.28;2064888;69;20666;-80
2023/09/13 04:55:26;;;;;;;6.90;3.80;;;;;;;18.88;75.53;92864.84;2064828;69;20160;-81
2023/09/13 04:57:52;;;;;;;8.43;3.70;;;;;;;18.83;75.31;92863.22;2065090;69;20145;-80
2023/09/13 05:00:18;;;;;;;6.07;3.90;;;;;;;18.94;75.62;92848.63;2065088;69;20155;-80
2023/09/13 05:02:44;;;;;;;5.70;3.92;;;;;;;19.02;75.55;92848.91;2065064;69;20137;-79
2023/09/13 05:05:09;;;;;;;5.55;3.50;;;;;;;18.91;74.82;92840.69;2065106;69;20168;-79
2023/09/13 05:07:35;;;;;;;8.18;3.40;;;;;;;18.81;75.33;92846.78;2068333;69;20156;-80
2023/09/13 05:10:01;;;;;;;5.80;3.67;;;;;;;18.36;77.71;92855.94;2068447;69;20137;-79
2023/09/13 05:12:26;;;;;;;7.22;3.47;;;;;;;18.42;77.02;92842.63;2065238;69;20141;-79
2023/09/13 05:14:52;;;;;;;5.72;3.25;;;;;;;18.24;77.17;92853.41;2068419;69;20224;-78
2023/09/13 05:17:17;;;;;;;4.80;3.35;;;;;;;18.37;75.51;92851.69;2064865;69;20183;-79
2023/09/13 05:19:43;;;;;;;4.55;3.20;;;;;;;18.45;74.66;92844.16;2068287;69;20581;-78
2023/09/13 05:22:09;;;;;;;5.90;3.03;;;;;;;18.64;74.12;92842.63;2068336;69;20124;-78
2023/09/13 05:24:34;;;;;;;5.47;3.60;;;;;;;18.55;75.15;92855.16;2068420;69;20242;-79
2023/09/13 05:27:00;;;;;;;6.07;3.20;;;;;;;18.59;73.73;92863.13;2068599;69;20141;-80
2023/09/13 05:29:25;;;;;;;5.15;3.28;;;;;;;18.68;74.58;92862.00;2068553;69;20141;-81
2023/09/13 05:31:51;;;;;;;6.57;3.05;;;;;;;18.81;74.63;92861.03;2068519;69;20145;-78
2023/09/13 05:34:17;;;;;;;4.93;3.38;;;;;;;18.79;74.64;92858.13;2068372;69;20193;-77
2023/09/13 05:36:42;;;;;;;6.65;3.65;;;;;;;18.70;75.73;92870.66;2068362;69;20222;-78
2023/09/13 05:39:08;;;;;;;8.55;4.75;;;;;;;18.18;78.29;92867.44;2068392;69;20164;-77
2023/09/13 05:41:37;;;;;;;5.85;3.92;;;;;;;18.47;76.76;92869.88;2068676;69;20251;-77
2023/09/13 05:44:09;;;;;;;7.78;3.72;;;;;;;18.71;76.51;92863.56;2071815;69;20149;-79
2023/09/13 05:46:35;;;;;;;8.45;3.95;;;;;;;18.72;76.76;92847.91;2071818;69;20145;-79
2023/09/13 05:49:01;;;;;;;7.00;3.88;;;;;;;18.86;75.87;92839.09;2071862;69;20151;-79
2023/09/13 05:51:26;;;;;;;6.60;3.67;;;;;;;19.01;73.87;92830.34;2068444;69;20229;-80
2023/09/13 05:53:52;;;;;;;7.85;3.90;;;;;;;19.07;75.43;92823.38;2071932;69;20596;-79
2023/09/13 05:56:17;;;;;;;6.15;3.75;;;;;;;19.07;75.15;92809.81;2071812;69;20164;-79
2023/09/13 05:58:44;;;;;;;6.35;3.95;;;;;;;19.16;75.73;92827.94;2071683;69;20199;-79
2023/09/13 06:01:11;;;;;;;7.90;3.80;;;;;;;19.29;74.43;92829.75;2068421;69;20611;-78
2023/09/13 06:03:36;;;;;;;8.05;4.20;;;;;;;19.25;74.90;92832.50;2071638;69;20176;-79
2023/09/13 06:06:02;;;;;;;6.43;4.00;;;;;;;19.54;73.63;92817.66;2071805;69;20514;-77
2023/09/13 06:08:28;;;;;;;4.93;3.42;;;;;;;19.33;73.92;92820.56;2071912;69;20258;-77
2023/09/13 06:10:53;;;;;;;5.82;3.70;;;;;;;19.62;73.44;92820.06;2071750;69;20160;-78
2023/09/13 06:13:19;;;;;;;7.47;4.00;;;;;;;19.46;73.05;92813.84;2071924;69;20136;-78
2023/09/13 06:15:44;;;;;;;7.03;4.32;;;;;;;19.36;73.06;92817.13;2071703;69;20600;-78
2023/09/13 06:18:10;;;;;;;8.02;4.32;;;;;;;19.03;76.07;92818.25;2071682;69;20152;-78
2023/09/13 06:20:36;;;;;;;8.77;3.83;;;;;;;19.53;73.73;92809.78;2071888;69;20598;-80
2023/09/13 06:23:01;;;;;;;9.70;4.13;;;;;;;19.52;74.20;92820.47;2071751;69;20151;-80
2023/09/13 06:25:27;;;;;;;6.18;4.07;;;;;;;19.78;73.45;92828.34;2071781;69;20167;-78
2023/09/13 06:27:52;;;;;;;7.35;3.85;;;;;;;19.77;72.48;92836.19;2071832;69;20136;-79
2023/09/13 06:30:20;;;;;;;7.85;3.90;;;;;;;19.83;72.06;92841.34;2071675;69;20174;-79
2023/09/13 06:32:46;;;;;;;7.10;3.90;;;;;;;19.97;72.32;92844.59;2071727;69;20144;-78
2023/09/13 06:35:13;;;;;;;7.72;3.88;;;;;;;19.94;73.00;92851.69;2071827;69;20156;-78
2023/09/13 06:37:39;;;;;;;5.28;3.80;;;;;;;20.17;72.66;92858.75;2071813;69;20168;-77
2023/09/13 06:40:06;;;;;;;9.10;4.10;;;;;;;20.29;72.66;92864.78;2071698;69;20232;-78
2023/09/13 06:42:32;;;;;;;7.35;3.88;;;;;;;20.33;71.57;92858.47;2071812;69;20180;-78
2023/09/13 06:44:59;;;;;;;7.90;3.90;;;;;;;20.05;71.87;92855.53;2068384;69;20188;-77
2023/09/13 06:47:28;;;;;;;6.03;4.22;;;;;;;19.66;73.54;92848.00;2071600;69;20612;-78
2023/09/13 06:49:56;;;;;;;6.00;4.00;;;;;;;20.23;69.08;92853.19;2071664;69;20156;-78
2023/09/13 06:52:21;;;;;;;7.38;3.72;;;;;;;20.59;71.18;92847.03;2071656;69;20527;-77
2023/09/13 06:54:47;;;;;;;7.68;3.85;;;;;;;20.67;71.49;92844.38;2071685;69;20160;-79
2023/09/13 06:57:13;;;;;;;7.53;4.07;;;;;;;20.52;70.87;92845.41;2071509;69;20167;-78
2023/09/13 06:59:39;;;;;;;9.38;4.10;;;;;;;20.32;70.29;92842.72;2071455;69;20486;-79
2023/09/13 07:02:05;;;;;;;5.80;3.63;;;;;;;20.54;68.21;92842.59;2071603;69;20179;-79
2023/09/13 07:04:32;;;;;;;8.13;4.13;;;;;;;20.75;69.73;92844.56;2071341;69;20261;-79
2023/09/13 07:06:58;;;;;;;9.63;4.00;;;;;;;20.59;68.83;92832.72;2071525;69;20336;-80
2023/09/13 07:09:24;;;;;;;6.45;4.10;;;;;;;20.29;69.33;92830.47;2071661;69;20235;-79
2023/09/13 07:11:49;;;;;;;5.75;3.70;;;;;;;20.54;69.60;92829.03;2071613;69;20503;-80
2023/09/13 07:14:15;;;;;;;5.97;3.50;;;;;;;20.81;68.91;92836.16;2071727;69;20594;-80
2023/09/13 07:16:40;;;;;;;5.63;3.22;;;;;;;20.92;69.63;92840.00;2071589;69;20152;-79
2023/09/13 07:19:06;;;;;;;5.95;3.50;;;;;;;21.23;68.34;92832.88;2071457;69;20234;-79
2023/09/13 07:21:31;;;;;;;6.80;3.60;;;;;;;21.52;66.34;92834.25;2071546;69;20137;-80
2023/09/13 07:23:57;;;;;;;5.97;3.85;;;;;;;21.24;67.42;92833.59;2068102;69;20179;-79
2023/09/13 07:26:23;;;;;;;4.95;3.47;;;;;;;21.30;66.62;92830.84;2071622;69;20147;-80
2023/09/13 07:28:48;;;;;;;6.38;3.53;;;;;;;21.52;66.40;92837.13;2071803;69;20164;-80
2023/09/13 07:31:14;;;;;;;4.13;3.42;;;;;;;21.63;67.11;92845.97;2071594;69;20245;-80
2023/09/13 07:33:39;;;;;;;3.65;3.00;;;;;;;21.32;67.45;92845.25;2071353;69;20147;-80
2023/09/13 07:36:05;;;;;;;5.55;3.00;;;;;;;21.65;65.66;92851.72;2071404;69;20225;-80
2023/09/13 07:38:32;;;;;;;5.57;3.20;;;;;;;21.71;66.11;92854.72;2071373;69;20155;-79
2023/09/13 07:40:58;;;;;;;5.75;3.08;;;;;;;21.43;65.09;92857.66;2071393;69;20179;-79
2023/09/13 07:43:23;;;;;;;9.80;3.58;;;;;;;20.97;67.90;92855.84;2071331;69;20156;-79
2023/09/13 07:45:50;;;;;;;5.50;3.28;;;;;;;20.67;68.60;92861.53;2071371;69;20198;-80
2023/09/13 07:48:16;;;;;;;6.88;3.33;;;;;;;20.92;67.99;92850.72;2071261;69;20640;-79
2023/09/13 07:50:41;;;;;;;7.45;3.13;;;;;;;21.37;67.20;92852.53;2071727;69;20209;-79
2023/09/13 07:53:08;;;;;;;4.55;3.42;;;;;;;21.28;67.53;92845.13;2071842;69;20149;-78
2023/09/13 07:55:34;;;;;;;6.57;3.63;;;;;;;21.18;66.91;92842.03;2071874;69;20200;-82
2023/09/13 07:58:00;;;;;;;7.45;3.30;;;;;;;21.17;67.86;92847.03;2071742;69;20183;-78
2023/09/13 08:00:25;;;;;;;6.88;3.60;;;;;;;21.50;67.06;92844.94;2071810;69;20580;-80
2023/09/13 08:02:51;;;;;;;5.70;4.40;;;;;;;21.10;68.56;92845.44;2071755;69;20227;-79
2023/09/13 08:05:17;;;;;;;8.05;4.05;;;;;;;21.87;67.55;92840.75;2071871;69;20172;-79
2023/09/13 08:07:46;;;;;;;9.07;4.80;;;;;;;21.71;66.97;92841.09;2071883;69;20182;-80
2023/09/13 08:10:12;;;;;;;6.63;4.20;;;;;;;21.97;65.55;92843.81;2071829;69;20244;-81
2023/09/13 08:12:37;;;;;;;7.63;4.45;;;;;;;22.05;64.51;92843.25;2071891;69;20160;-80
2023/09/13 08:15:03;;;;;;;6.13;3.97;;;;;;;21.88;64.83;92845.06;2072145;69;20152;-79
2023/09/13 08:17:30;;;;;;;6.78;3.92;;;;;;;21.75;65.36;92851.94;2071718;69;20147;-79
2023/09/13 08:20:00;;;;;;;7.53;4.15;;;;;;;21.63;64.85;92840.22;2071925;69;20144;-78
2023/09/13 08:22:25;;;;;;;9.02;3.60;;;;;;;;;;2068571;69;20152;-79
2023/09/13 08:24:51;;;;;;;7.07;3.80;;;;;;;21.62;64.87;92862.41;2071838;69;20152;-80
2023/09/13 08:27:17;;;;;;;7.10;3.70;;;;;;;21.55;65.46;92861.53;2068480;69;20218;-77
2023/09/13 08:29:42;;;;;;;8.57;3.70;;;;;;;22.24;62.82;92865.16;2071498;69;20163;-81
2023/09/13 08:32:08;;;;;;;4.63;3.97;;;;;;;22.33;62.78;92874.66;2071878;69;20619;-80
2023/09/13 08:34:35;;;;;;;5.78;3.65;;;;;;;21.66;64.60;92871.06;2071702;69;20148;-79
2023/09/13 08:37:03;;;;;;;7.68;4.20;;;;;;;22.05;62.63;92869.78;2068495;69;20155;-79
2023/09/13 08:39:29;;;;;;;4.68;3.22;;;;;;;22.10;61.79;92872.72;2072029;69;20143;-80
2023/09/13 08:41:56;;;;;;;6.43;3.22;;;;;;;21.69;63.45;92877.59;2072008;69;20527;-78
2023/09/13 08:44:22;;;;;;;7.05;3.78;;;;;;;21.92;63.95;92873.06;2071969;69;20155;-79
2023/09/13 08:46:55;;;;;;;6.32;3.60;;;;;;;21.67;63.37;92874.66;2068647;69;20648;-80
2023/09/13 08:49:21;;;;;;;7.50;4.03;;;;;;;21.88;63.55;92870.84;2068331;69;20172;-79
2023/09/13 08:51:48;;;;;;;7.68;3.60;;;;;;;21.14;65.07;92871.28;2071753;69;20147;-78
2023/09/13 08:54:16;;;;;;;6.25;3.50;;;;;;;21.37;65.70;92869.72;2068410;69;20144;-79
2023/09/13 08:56:45;;;;;;;5.63;3.50;;;;;;;21.39;65.78;92871.88;2071724;69;20152;-79
2023/09/13 08:59:15;;;;;;;7.13;3.85;;;;;;;20.55;68.00;92861.94;2071674;69;20152;-78
2023/09/13 09:01:46;;;;;;;5.72;3.88;;;;;;;20.95;66.64;92869.41;2071578;69;20157;-77
2023/09/13 09:04:14;;;;;;;6.60;4.20;;;;;;;20.46;68.36;92865.97;2068295;69;20140;-77
2023/09/13 09:06:41;;;;;;;10.02;4.57;;;;;;;20.05;70.51;92864.13;2071648;69;20286;-78
2023/09/13 09:09:07;;;;;;;10.02;4.30;;;;;;;20.32;69.44;92874.16;2071872;69;20152;-78
2023/09/13 09:11:36;;;;;;;5.82;3.88;;;;;;;20.71;68.71;92884.53;2071665;69;20148;-78
2023/09/13 09:14:03;;;;;;;6.20;4.45;;;;;;;20.92;67.89;92894.34;2071527;69;20136;-77
2023/09/13 09:16:32;;;;;;;6.97;4.10;;;;;;;20.86;67.28;92887.75;2071705;69;20665;-77
2023/09/13 09:19:00;;;;;;;8.30;4.30;;;;;;;21.15;66.34;92889.91;2071691;69;20195;-77
2023/09/13 09:21:26;;;;;;;6.75;4.18;;;;;;;21.32;67.22;92911.13;2071883;69;20160;-79
2023/09/13 09:23:53;;;;;;;8.15;4.00;;;;;;;21.48;65.61;92907.91;2071852;69;20141;-78
2023/09/13 09:26:20;;;;;;;8.38;4.03;;;;;;;21.72;68.17;92899.88;2071890;69;20235;-78
2023/09/13 09:28:46;;;;;;;5.35;3.55;;;;;;;21.81;68.76;92903.66;2071851;69;20148;-79
2023/09/13 09:31:16;;;;;;;5.20;3.70;;;;;;;21.88;68.76;92905.22;2071756;69;20133;-77
2023/09/13 09:33:42;;;;;;;9.80;3.83;;;;;;;21.82;68.77;92905.84;2071554;69;20136;-78
2023/09/13 09:36:13;;;;;;;11.13;4.15;;;;;;;21.76;69.56;92905.72;2068419;69;20147;-78
2023/09/13 09:38:43;;;;;;;5.18;4.20;;;;;;;21.65;70.16;92920.47;2071720;69;20160;-79
2023/09/13 09:41:09;;;;;;;7.25;4.20;;;;;;;21.78;66.97;92910.75;2071948;69;20599;-78
2023/09/13 09:43:36;;;;;;;5.43;3.92;;;;;;;21.61;66.59;92908.91;2071710;69;20139;-77
2023/09/13 09:46:12;;;;;;;7.82;3.80;;;;;;;21.60;67.67;92913.91;2068282;69;20608;-78
2023/09/13 09:48:38;;;;;;;5.63;3.90;;;;;;;21.72;68.28;92916.34;2071582;69;20155;-78
2023/09/13 09:51:04;;;;;;;5.75;3.95;;;;;;;21.72;67.72;92908.47;2071864;69;20500;-80
2023/09/13 09:53:30;;;;;;;8.48;4.03;;;;;;;21.79;68.78;92915.78;2071879;69;20656;-79
2023/09/13 09:55:55;;;;;;;9.05;4.25;;;;;;;21.43;70.26;92909.94;2068618;69;20264;-80
2023/09/13 09:58:23;;;;;;;6.90;3.60;;;;;;;21.55;70.89;92913.09;2071784;69;20204;-81
2023/09/13 10:00:52;;;;;;;6.72;4.03;;;;;;;21.57;69.49;92918.13;2071826;69;20175;-79
2023/09/13 10:03:18;;;;;;;5.82;4.53;;;;;;;21.59;69.22;92915.34;2071761;69;20676;-79
2023/09/13 10:06:03;;;;;;;6.78;4.10;;;;;;;21.55;70.04;92924.56;2071714;69;20570;-77
2023/09/13 10:08:41;;;;;;;7.65;3.80;;;;;;;21.55;70.53;92918.81;2071720;69;20128;-77
2023/09/13 10:11:09;;;;;;;6.15;4.10;;;;;;;21.48;70.25;92922.22;2068507;69;20610;-76
2023/09/13 10:13:36;;;;;;;6.97;4.13;;;;;;;21.66;69.10;92913.31;2071734;69;20133;-76
2023/09/13 10:16:02;;;;;;;7.57;4.40;;;;;;;21.64;70.40;92914.00;2069086;69;20156;-77
2023/09/13 10:18:32;;;;;;;7.00;4.25;;;;;;;21.64;71.06;92910.44;2071757;69;20163;-79
2023/09/13 10:20:59;;;;;;;9.68;4.68;;;;;;;21.14;71.69;92908.50;2072056;69;20160;-79
2023/09/13 10:23:33;;;;;;;6.10;4.00;;;;;;;20.93;71.69;92910.13;2071927;69;20150;-78
2023/09/13 10:26:01;;;;;;;5.53;4.28;;;;;;;21.27;71.18;92910.25;2071962;69;20136;-79
2023/09/13 10:28:32;;;;;;;7.63;4.55;;;;;;;21.34;72.08;92908.28;2071872;69;20152;-79
2023/09/13 10:31:01;;;;;;;7.97;4.88;;;;;;;21.45;70.67;92915.72;2071956;69;20171;-79
2023/09/13 10:33:32;;;;;;;7.10;4.20;;;;;;;21.59;70.28;92917.47;2071708;69;20632;-80
2023/09/13 10:36:00;;;;;;;7.20;4.82;;;;;;;21.65;70.37;92915.47;2071852;69;20155;-81
2023/09/13 10:38:31;;;;;;;8.23;4.53;;;;;;;21.71;69.71;92918.47;2071907;69;20183;-81
2023/09/13 10:41:03;;;;;;;7.47;4.88;;;;;;;21.34;69.54;92916.88;2072021;69;20148;-81
2023/09/13 10:43:30;;;;;;;8.52;4.65;;;;;;;21.21;69.99;92915.09;2074935;69;20599;-81
2023/09/13 10:45:58;;;;;;;8.73;4.25;;;;;;;21.28;70.86;92914.56;2072857;69;20201;-81
2023/09/13 10:48:25;;;;;;;5.70;4.55;;;;;;;21.63;68.69;92921.16;2071259;69;20144;-79
2023/09/13 10:50:54;;;;;;;6.72;4.03;;;;;;;21.60;69.69;92913.91;2070411;69;20648;-80
2023/09/13 10:53:22;;;;;;;8.73;4.78;;;;;;;21.75;69.74;92914.97;2073168;69;20610;-80
2023/09/13 10:55:49;;;;;;;6.25;4.40;;;;;;;21.81;69.31;92910.13;2073609;69;20159;-81
2023/09/13 10:58:20;;;;;;;7.85;4.18;;;;;;;21.91;68.08;92918.22;2071434;69;20153;-80
2023/09/13 11:00:54;;;;;;;6.88;4.53;;;;;;;21.81;69.07;92915.13;2071895;69;20240;-80
2023/09/13 11:03:21;;;;;;;8.70;4.50;;;;;;;21.92;68.55;92911.06;2071817;69;20140;-80
2023/09/13 11:05:50;;;;;;;7.55;4.55;;;;;;;21.79;67.69;92912.19;2071986;69;20235;-84
2023/09/13 11:08:30;;;;;;;5.72;3.97;;;;;;;21.61;68.90;92911.78;2071605;69;20600;-80
2023/09/13 11:11:06;;;;;;;7.05;4.40;;;;;;;21.31;70.45;92901.81;2071484;69;20260;-79
2023/09/13 11:13:31;;;;;;;7.28;4.10;;;;;;;21.62;68.61;92907.50;2071502;69;20159;-78
2023/09/13 11:16:03;;;;;;;5.63;4.25;;;;;;;21.62;68.02;92905.34;2071384;69;20136;-79
2023/09/13 11:18:29;;;;;;;8.77;4.40;;;;;;;21.83;66.68;92907.28;2071403;69;20172;-78
2023/09/13 11:20:56;;;;;;;6.38;3.72;;;;;;;21.85;66.65;92895.13;2071355;69;20603;-79
2023/09/13 11:23:22;;;;;;;4.38;3.70;;;;;;;21.88;66.27;92901.66;2071525;69;20140;-77
2023/09/13 11:25:53;;;;;;;5.95;3.50;;;;;;;22.03;64.96;92898.38;2068553;69;20238;-78
2023/09/13 11:28:37;;;;;;;7.15;3.95;;;;;;;22.52;64.03;92905.16;2071919;69;20630;-82
2023/09/13 11:31:04;;;;;;;5.88;3.50;;;;;;;22.45;64.54;92897.88;2072082;69;20140;-80
2023/09/13 11:33:37;;;;;;;5.05;3.72;;;;;;;22.35;65.63;92891.91;2071896;69;20132;-78
2023/09/13 11:36:03;;;;;;;6.07;3.73;;;;;;;22.40;67.13;92901.31;2071800;69;20164;-78